sensor_id;sensor_type;location;lat;lon;timestamp;pressure;altitude;pressure_sealevel;temperature;humidity
62779;BME280;48821;48.796;2.396;2022-07-29T05:36:54;101399.31;;;21.08;48.08
62779;BME280;48821;48.796;2.396;2022-07-29T05:38:04;101400.81;;;21.12;48.64
62779;BME280;48821;48.796;2.396;2022-07-29T05:39:15;101392.47;;;21.17;48.27
62779;BME280;48821;48.796;2.396;2022-07-29T05:40:25;101398.69;;;21.18;48.88
62779;BME280;48821;48.796;2.396;2022-07-29T05:41:35;101388.63;;;21.21;48.46
62779;BME280;48821;48.796;2.396;2022-07-29T05:42:45;101393.75;;;21.24;48.15
62779;BME280;48821;48.796;2.396;2022-07-29T05:43:56;101398.91;;;21.28;47.96
62779;BME280;48821;48.796;2.396;2022-07-29T05:45:07;101393.44;;;21.29;48.13
62779;BME280;48821;48.796;2.396;2022-07-29T05:46:17;101400.41;;;21.32;48.74
62779;BME280;48821;48.796;2.396;2022-07-29T05:47:28;101399.34;;;21.34;48.76
62779;BME280;48821;48.796;2.396;2022-07-29T05:48:38;101398.38;;;21.35;47.89
62779;BME280;48821;48.796;2.396;2022-07-29T05:49:49;101403.50;;;21.39;48.29
62779;BME280;48821;48.796;2.396;2022-07-29T05:50:59;101407.78;;;21.41;47.93
62779;BME280;48821;48.796;2.396;2022-07-29T05:52:10;101407.78;;;21.41;47.86
62779;BME280;48821;48.796;2.396;2022-07-29T05:53:20;101411.13;;;21.45;47.92
62779;BME280;48821;48.796;2.396;2022-07-29T05:54:30;101410.13;;;21.46;48.31
62779;BME280;48821;48.796;2.396;2022-07-29T05:55:41;101414.31;;;21.50;48.44
62779;BME280;48821;48.796;2.396;2022-07-29T05:56:51;101406.31;;;21.50;48.10
62779;BME280;48821;48.796;2.396;2022-07-29T05:58:01;101415.94;;;21.53;48.18
62779;BME280;48821;48.796;2.396;2022-07-29T05:59:12;101408.66;;;21.55;47.69
62779;BME280;48821;48.796;2.396;2022-07-29T06:00:22;101413.03;;;21.56;48.44
62779;BME280;48821;48.796;2.396;2022-07-29T06:01:33;101410.16;;;21.59;48.62
62779;BME280;48821;48.796;2.396;2022-07-29T06:02:43;101412.75;;;21.61;48.49
62779;BME280;48821;48.796;2.396;2022-07-29T06:03:54;101415.16;;;21.64;48.51
62779;BME280;48821;48.796;2.396;2022-07-29T06:05:04;101418.59;;;21.66;48.74
62779;BME280;48821;48.796;2.396;2022-07-29T06:06:15;101418.38;;;21.69;48.31
62779;BME280;48821;48.796;2.396;2022-07-29T06:07:25;101418.19;;;21.72;48.87
62779;BME280;48821;48.796;2.396;2022-07-29T06:08:36;101418.19;;;21.72;48.42
62779;BME280;48821;48.796;2.396;2022-07-29T06:09:46;101421.47;;;21.76;48.80
62779;BME280;48821;48.796;2.396;2022-07-29T06:10:56;101422.25;;;21.78;49.44
62779;BME280;48821;48.796;2.396;2022-07-29T06:12:07;101426.28;;;21.84;49.35
62779;BME280;48821;48.796;2.396;2022-07-29T06:13:18;101428.88;;;21.85;49.29
62779;BME280;48821;48.796;2.396;2022-07-29T06:14:28;101433.16;;;21.88;48.49
62779;BME280;48821;48.796;2.396;2022-07-29T06:15:38;101434.69;;;21.92;48.52
62779;BME280;48821;48.796;2.396;2022-07-29T06:16:49;101441.63;;;21.95;48.18
62779;BME280;48821;48.796;2.396;2022-07-29T06:17:59;101441.41;;;21.98;48.34
62779;BME280;48821;48.796;2.396;2022-07-29T06:19:09;101443.97;;;21.99;48.93
62779;BME280;48821;48.796;2.396;2022-07-29T06:20:20;101436.56;;;22.03;49.20
62779;BME280;48821;48.796;2.396;2022-07-29T06:21:30;101439.03;;;22.06;49.45
62779;BME280;48821;48.796;2.396;2022-07-29T06:22:41;101437.84;;;22.10;48.81
62779;BME280;48821;48.796;2.396;2022-07-29T06:23:51;101437.63;;;22.13;48.04
62779;BME280;48821;48.796;2.396;2022-07-29T06:25:02;101439.97;;;22.18;48.66
62779;BME280;48821;48.796;2.396;2022-07-29T06:26:13;101440.63;;;22.22;48.51
62779;BME280;48821;48.796;2.396;2022-07-29T06:27:24;101439.56;;;22.24;48.18
62779;BME280;48821;48.796;2.396;2022-07-29T06:28:34;101442.75;;;22.30;48.15
62779;BME280;48821;48.796;2.396;2022-07-29T06:29:44;101439.09;;;22.31;48.22
62779;BME280;48821;48.796;2.396;2022-07-29T06:30:55;101441.44;;;22.35;47.82
62779;BME280;48821;48.796;2.396;2022-07-29T06:32:05;101433.31;;;22.37;48.18
62779;BME280;48821;48.796;2.396;2022-07-29T06:33:17;101431.25;;;22.41;47.70
62779;BME280;48821;48.796;2.396;2022-07-29T06:34:28;101432.00;;;22.43;47.20
62779;BME280;48821;48.796;2.396;2022-07-29T06:35:39;101430.91;;;22.45;47.40
62779;BME280;48821;48.796;2.396;2022-07-29T06:36:51;101430.81;;;22.47;46.90
62779;BME280;48821;48.796;2.396;2022-07-29T06:38:02;101435.84;;;22.52;47.18
62779;BME280;48821;48.796;2.396;2022-07-29T06:39:13;101434.84;;;22.53;47.37
62779;BME280;48821;48.796;2.396;2022-07-29T06:40:23;101437.31;;;22.56;47.58
62779;BME280;48821;48.796;2.396;2022-07-29T06:41:52;101433.69;;;22.57;47.22
62779;BME280;48821;48.796;2.396;2022-07-29T06:43:03;101430.88;;;22.58;48.06
62779;BME280;48821;48.796;2.396;2022-07-29T06:44:13;101436.00;;;22.62;46.06
62779;BME280;48821;48.796;2.396;2022-07-29T06:45:24;101433.22;;;22.63;46.96
62779;BME280;48821;48.796;2.396;2022-07-29T06:46:34;101433.09;;;22.65;47.31
62779;BME280;48821;48.796;2.396;2022-07-29T06:47:44;101434.69;;;22.67;45.72
62779;BME280;48821;48.796;2.396;2022-07-29T06:48:55;101443.50;;;22.69;44.60
62779;BME280;48821;48.796;2.396;2022-07-29T06:50:05;101437.19;;;22.70;44.38
62779;BME280;48821;48.796;2.396;2022-07-29T06:51:16;101438.91;;;22.72;45.75
62779;BME280;48821;48.796;2.396;2022-07-29T06:52:27;101443.28;;;22.73;45.05
62779;BME280;48821;48.796;2.396;2022-07-29T06:53:38;101443.06;;;22.76;44.48
62779;BME280;48821;48.796;2.396;2022-07-29T06:54:48;101441.09;;;22.78;44.77
62779;BME280;48821;48.796;2.396;2022-07-29T06:56:00;101438.31;;;22.79;44.70
62779;BME280;48821;48.796;2.396;2022-07-29T06:57:11;101441.63;;;22.83;44.24
62779;BME280;48821;48.796;2.396;2022-07-29T06:58:21;101437.97;;;22.84;44.51
62779;BME280;48821;48.796;2.396;2022-07-29T06:59:32;101438.72;;;22.86;43.99
62779;BME280;48821;48.796;2.396;2022-07-29T07:00:42;101451.03;;;22.89;43.65
62779;BME280;48821;48.796;2.396;2022-07-29T07:01:52;101449.09;;;22.91;44.01
62779;BME280;48821;48.796;2.396;2022-07-29T07:03:03;101449.72;;;22.95;44.43
62779;BME280;48821;48.796;2.396;2022-07-29T07:04:13;101454.13;;;22.96;43.11
62779;BME280;48821;48.796;2.396;2022-07-29T07:05:24;101449.63;;;22.96;42.89
62779;BME280;48821;48.796;2.396;2022-07-29T07:06:34;101456.56;;;22.99;42.80
62779;BME280;48821;48.796;2.396;2022-07-29T07:07:45;101445.72;;;23.00;43.01
62779;BME280;48821;48.796;2.396;2022-07-29T07:08:55;101453.53;;;23.03;42.71
62779;BME280;48821;48.796;2.396;2022-07-29T07:10:06;101452.56;;;23.04;43.08
62779;BME280;48821;48.796;2.396;2022-07-29T07:11:16;101456.81;;;23.07;42.10
62779;BME280;48821;48.796;2.396;2022-07-29T07:12:26;101455.00;;;23.08;41.74
62779;BME280;48821;48.796;2.396;2022-07-29T07:13:37;101457.56;;;23.09;41.99
62779;BME280;48821;48.796;2.396;2022-07-29T07:14:47;101455.63;;;23.11;41.78
62779;BME280;48821;48.796;2.396;2022-07-29T07:15:58;101454.53;;;23.14;41.47
62779;BME280;48821;48.796;2.396;2022-07-29T07:17:08;101455.38;;;23.14;41.83
62779;BME280;48821;48.796;2.396;2022-07-29T07:18:18;101458.59;;;23.20;40.92
62779;BME280;48821;48.796;2.396;2022-07-29T07:19:29;101458.59;;;23.20;40.79
62779;BME280;48821;48.796;2.396;2022-07-29T07:20:39;101458.22;;;23.24;41.24
62779;BME280;48821;48.796;2.396;2022-07-29T07:21:50;101459.09;;;23.25;40.81
62779;BME280;48821;48.796;2.396;2022-07-29T07:23:00;101460.56;;;23.29;41.33
62779;BME280;48821;48.796;2.396;2022-07-29T07:24:11;101458.59;;;23.31;41.34
62779;BME280;48821;48.796;2.396;2022-07-29T07:25:21;101454.75;;;23.35;41.04
62779;BME280;48821;48.796;2.396;2022-07-29T07:26:31;101458.16;;;23.37;41.10
62779;BME280;48821;48.796;2.396;2022-07-29T07:27:43;101458.88;;;23.40;40.57
62779;BME280;48821;48.796;2.396;2022-07-29T07:28:53;101456.06;;;23.41;40.36
62779;BME280;48821;48.796;2.396;2022-07-29T07:30:05;101459.38;;;23.45;40.79
62779;BME280;48821;48.796;2.396;2022-07-29T07:31:16;101466.25;;;23.49;40.29
62779;BME280;48821;48.796;2.396;2022-07-29T07:32:26;101462.38;;;23.53;40.36
62779;BME280;48821;48.796;2.396;2022-07-29T07:33:37;101466.63;;;23.56;40.25
62779;BME280;48821;48.796;2.396;2022-07-29T07:34:47;101463.59;;;23.60;40.37
62779;BME280;48821;48.796;2.396;2022-07-29T07:35:57;101467.97;;;23.62;39.72
62779;BME280;48821;48.796;2.396;2022-07-29T07:37:08;101462.38;;;23.65;39.93
62779;BME280;48821;48.796;2.396;2022-07-29T07:38:19;101467.53;;;23.68;40.07
62779;BME280;48821;48.796;2.396;2022-07-29T07:39:29;101465.44;;;23.71;40.24
62779;BME280;48821;48.796;2.396;2022-07-29T07:40:40;101463.47;;;23.74;39.69
62779;BME280;48821;48.796;2.396;2022-07-29T07:41:51;101463.13;;;23.78;39.46
62779;BME280;48821;48.796;2.396;2022-07-29T07:43:01;101461.19;;;23.80;39.39
62779;BME280;48821;48.796;2.396;2022-07-29T07:44:12;101467.03;;;23.86;39.22
62779;BME280;48821;48.796;2.396;2022-07-29T07:45:22;101465.84;;;23.90;39.00
62779;BME280;48821;48.796;2.396;2022-07-29T07:46:33;101470.84;;;23.94;38.92
62779;BME280;48821;48.796;2.396;2022-07-29T07:47:43;101472.44;;;23.97;39.18
62779;BME280;48821;48.796;2.396;2022-07-29T07:48:53;101467.78;;;23.99;38.75
62779;BME280;48821;48.796;2.396;2022-07-29T07:50:09;101464.00;;;24.02;38.63
62779;BME280;48821;48.796;2.396;2022-07-29T07:51:19;101466.56;;;24.03;38.56
62779;BME280;48821;48.796;2.396;2022-07-29T07:52:30;101470.69;;;24.08;37.97
62779;BME280;48821;48.796;2.396;2022-07-29T07:53:40;101465.09;;;24.11;38.42
62779;BME280;48821;48.796;2.396;2022-07-29T07:54:51;101466.81;;;24.12;37.95
62779;BME280;48821;48.796;2.396;2022-07-29T07:56:01;101461.19;;;24.15;38.34
62779;BME280;48821;48.796;2.396;2022-07-29T07:57:13;101469.72;;;24.20;38.02
62779;BME280;48821;48.796;2.396;2022-07-29T07:58:23;101461.56;;;24.22;38.35
62779;BME280;48821;48.796;2.396;2022-07-29T07:59:34;101467.56;;;24.25;38.82
62779;BME280;48821;48.796;2.396;2022-07-29T08:00:44;101472.53;;;24.30;37.78
62779;BME280;48821;48.796;2.396;2022-07-29T08:01:55;101471.59;;;24.31;37.63
62779;BME280;48821;48.796;2.396;2022-07-29T08:03:05;101472.31;;;24.33;37.60
62779;BME280;48821;48.796;2.396;2022-07-29T08:04:15;101471.22;;;24.36;37.53
62779;BME280;48821;48.796;2.396;2022-07-29T08:05:26;101477.31;;;24.38;37.46
62779;BME280;48821;48.796;2.396;2022-07-29T08:06:36;101478.75;;;24.42;37.79
62779;BME280;48821;48.796;2.396;2022-07-29T08:07:47;101471.44;;;24.44;37.58
62779;BME280;48821;48.796;2.396;2022-07-29T08:08:58;101475.72;;;24.47;37.25
62779;BME280;48821;48.796;2.396;2022-07-29T08:10:08;101480.00;;;24.49;36.75
62779;BME280;48821;48.796;2.396;2022-07-29T08:11:19;101478.84;;;24.52;37.29
62779;BME280;48821;48.796;2.396;2022-07-29T08:12:30;101477.75;;;24.55;37.41
62779;BME280;48821;48.796;2.396;2022-07-29T08:13:40;101482.31;;;24.54;36.50
62779;BME280;48821;48.796;2.396;2022-07-29T08:14:51;101480.34;;;24.56;36.62
62779;BME280;48821;48.796;2.396;2022-07-29T08:16:01;101470.44;;;24.57;37.06
62779;BME280;48821;48.796;2.396;2022-07-29T08:17:11;101479.97;;;24.61;36.86
62779;BME280;48821;48.796;2.396;2022-07-29T08:18:22;101472.63;;;24.63;36.55
62779;BME280;48821;48.796;2.396;2022-07-29T08:19:32;101475.16;;;24.65;36.62
62779;BME280;48821;48.796;2.396;2022-07-29T08:20:43;101476.75;;;24.67;36.61
62779;BME280;48821;48.796;2.396;2022-07-29T08:21:53;101475.78;;;24.68;36.56
62779;BME280;48821;48.796;2.396;2022-07-29T08:23:04;101483.59;;;24.71;36.16
62779;BME280;48821;48.796;2.396;2022-07-29T08:24:16;101475.66;;;24.70;36.13
62779;BME280;48821;48.796;2.396;2022-07-29T08:25:45;101482.50;;;24.74;36.49
62779;BME280;48821;48.796;2.396;2022-07-29T08:26:55;101479.69;;;24.76;36.36
62779;BME280;48821;48.796;2.396;2022-07-29T08:28:05;101476.84;;;24.77;36.31
62779;BME280;48821;48.796;2.396;2022-07-29T08:29:16;101476.59;;;24.80;36.24
62779;BME280;48821;48.796;2.396;2022-07-29T08:30:26;101476.34;;;24.83;36.16
62779;BME280;48821;48.796;2.396;2022-07-29T08:31:37;101480.63;;;24.86;36.00
62779;BME280;48821;48.796;2.396;2022-07-29T08:32:48;101476.06;;;24.87;35.81
62779;BME280;48821;48.796;2.396;2022-07-29T08:34:00;101471.47;;;24.89;35.61
62779;BME280;48821;48.796;2.396;2022-07-29T08:35:10;101477.56;;;24.91;36.04
62779;BME280;48821;48.796;2.396;2022-07-29T08:36:21;101478.28;;;24.93;35.56
62779;BME280;48821;48.796;2.396;2022-07-29T08:37:31;101486.94;;;24.97;36.01
62779;BME280;48821;48.796;2.396;2022-07-29T08:38:42;101487.69;;;24.99;36.07
62779;BME280;48821;48.796;2.396;2022-07-29T08:39:52;101485.47;;;25.04;35.78
62779;BME280;48821;48.796;2.396;2022-07-29T08:41:02;101486.31;;;25.04;35.53
62779;BME280;48821;48.796;2.396;2022-07-29T08:42:13;101480.69;;;25.08;36.05
62779;BME280;48821;48.796;2.396;2022-07-29T08:43:23;101484.00;;;25.11;35.90
62779;BME280;48821;48.796;2.396;2022-07-29T08:44:34;101480.31;;;25.12;35.58
62779;BME280;48821;48.796;2.396;2022-07-29T08:45:47;101488.84;;;25.17;35.42
62779;BME280;48821;48.796;2.396;2022-07-29T08:46:57;101485.19;;;25.19;35.88
62779;BME280;48821;48.796;2.396;2022-07-29T08:48:08;101478.81;;;25.20;35.65
62779;BME280;48821;48.796;2.396;2022-07-29T08:49:18;101483.22;;;25.21;35.58
62779;BME280;48821;48.796;2.396;2022-07-29T08:50:30;101479.41;;;25.23;35.28
62779;BME280;48821;48.796;2.396;2022-07-29T08:51:40;101482.81;;;25.25;35.39
62779;BME280;48821;48.796;2.396;2022-07-29T08:52:51;101479.13;;;25.26;35.39
62779;BME280;48821;48.796;2.396;2022-07-29T08:54:02;101482.56;;;25.28;35.07
62779;BME280;48821;48.796;2.396;2022-07-29T08:55:15;101475.31;;;25.29;34.60
62779;BME280;48821;48.796;2.396;2022-07-29T08:56:25;101475.06;;;25.32;35.14
62779;BME280;48821;48.796;2.396;2022-07-29T08:57:38;101478.47;;;25.34;35.51
62779;BME280;48821;48.796;2.396;2022-07-29T08:58:49;101474.81;;;25.35;34.90
62779;BME280;48821;48.796;2.396;2022-07-29T09:00:01;101474.56;;;25.38;34.72
62779;BME280;48821;48.796;2.396;2022-07-29T09:01:17;101472.72;;;25.39;34.69
62779;BME280;48821;48.796;2.396;2022-07-29T09:02:35;101477.69;;;25.44;35.57
62779;BME280;48821;48.796;2.396;2022-07-29T09:03:46;101481.25;;;25.44;35.04
62779;BME280;48821;48.796;2.396;2022-07-29T09:04:59;101476.72;;;25.45;34.56
62779;BME280;48821;48.796;2.396;2022-07-29T09:06:13;101476.56;;;25.46;34.33
62779;BME280;48821;48.796;2.396;2022-07-29T09:07:24;101482.81;;;25.47;34.92
62779;BME280;48821;48.796;2.396;2022-07-29T09:08:34;101481.84;;;25.48;34.73
62779;BME280;48821;48.796;2.396;2022-07-29T09:09:45;101478.88;;;25.51;34.64
62779;BME280;48821;48.796;2.396;2022-07-29T09:10:57;101484.25;;;25.51;34.66
62779;BME280;48821;48.796;2.396;2022-07-29T09:12:09;101478.88;;;25.51;34.70
62779;BME280;48821;48.796;2.396;2022-07-29T09:13:22;101480.59;;;25.52;34.32
62779;BME280;48821;48.796;2.396;2022-07-29T09:14:32;101481.44;;;25.53;33.90
62779;BME280;48821;48.796;2.396;2022-07-29T09:15:44;101469.81;;;25.52;34.58
62779;BME280;48821;48.796;2.396;2022-07-29T09:16:55;101481.31;;;25.54;34.64
62779;BME280;48821;48.796;2.396;2022-07-29T09:18:06;101475.06;;;25.54;34.43
62779;BME280;48821;48.796;2.396;2022-07-29T09:19:28;101482.16;;;25.55;34.84
62779;BME280;48821;48.796;2.396;2022-07-29T09:20:39;101475.81;;;25.56;34.62
62779;BME280;48821;48.796;2.396;2022-07-29T09:22:29;101480.19;;;25.57;34.98
62779;BME280;48821;48.796;2.396;2022-07-29T09:23:40;101471.25;;;25.56;34.16
62779;BME280;48821;48.796;2.396;2022-07-29T09:24:52;101474.94;;;25.55;34.26
62779;BME280;48821;48.796;2.396;2022-07-29T09:26:05;101476.63;;;25.56;35.11
62779;BME280;48821;48.796;2.396;2022-07-29T09:27:23;101477.25;;;25.60;35.50
62779;BME280;48821;48.796;2.396;2022-07-29T09:28:41;101478.09;;;25.60;35.62
62779;BME280;48821;48.796;2.396;2022-07-29T09:30:06;101471.84;;;25.60;35.72
62779;BME280;48821;48.796;2.396;2022-07-29T09:31:17;101472.72;;;25.60;35.54
62779;BME280;48821;48.796;2.396;2022-07-29T09:32:28;101475.41;;;25.60;35.45
62779;BME280;48821;48.796;2.396;2022-07-29T09:33:39;101472.72;;;25.60;34.63
62779;BME280;48821;48.796;2.396;2022-07-29T09:35:30;101474.41;;;25.61;33.89
62779;BME280;48821;48.796;2.396;2022-07-29T09:36:41;101479.78;;;25.61;34.33
62779;BME280;48821;48.796;2.396;2022-07-29T09:37:52;101473.44;;;25.62;34.36
62779;BME280;48821;48.796;2.396;2022-07-29T09:39:02;101472.56;;;25.62;34.35
62779;BME280;48821;48.796;2.396;2022-07-29T09:40:15;101475.00;;;25.65;34.72
62779;BME280;48821;48.796;2.396;2022-07-29T09:41:27;101467.03;;;25.63;34.78
62779;BME280;48821;48.796;2.396;2022-07-29T09:42:37;101476.84;;;25.65;34.72
62779;BME280;48821;48.796;2.396;2022-07-29T09:43:57;101473.88;;;25.68;34.35
62779;BME280;48821;48.796;2.396;2022-07-29T09:45:08;101476.44;;;25.69;34.01
62779;BME280;48821;48.796;2.396;2022-07-29T09:46:19;101462.84;;;25.71;34.70
62779;BME280;48821;48.796;2.396;2022-07-29T09:47:46;101466.31;;;25.73;35.09
62779;BME280;48821;48.796;2.396;2022-07-29T09:49:08;101470.53;;;25.76;34.86
62779;BME280;48821;48.796;2.396;2022-07-29T09:50:21;101469.41;;;25.78;34.90
62779;BME280;48821;48.796;2.396;2022-07-29T09:51:34;101461.22;;;25.80;35.01
62779;BME280;48821;48.796;2.396;2022-07-29T09:52:50;101475.41;;;25.82;35.24
62779;BME280;48821;48.796;2.396;2022-07-29T09:54:00;101467.31;;;25.82;34.70
62779;BME280;48821;48.796;2.396;2022-07-29T09:55:14;101471.44;;;25.86;34.48
62779;BME280;48821;48.796;2.396;2022-07-29T09:56:41;101472.03;;;25.90;34.44
62779;BME280;48821;48.796;2.396;2022-07-29T09:57:51;101469.34;;;25.90;33.66
62779;BME280;48821;48.796;2.396;2022-07-29T09:59:05;101476.31;;;25.92;34.11
62779;BME280;48821;48.796;2.396;2022-07-29T10:00:18;101474.19;;;25.96;34.45
62779;BME280;48821;48.796;2.396;2022-07-29T10:01:29;101463.31;;;25.98;34.44
62779;BME280;48821;48.796;2.396;2022-07-29T10:02:42;101463.31;;;25.98;33.72
62779;BME280;48821;48.796;2.396;2022-07-29T10:03:54;101472.91;;;26.00;33.76
62779;BME280;48821;48.796;2.396;2022-07-29T10:05:08;101459.34;;;26.02;34.17
62779;BME280;48821;48.796;2.396;2022-07-29T10:06:25;101467.97;;;26.05;33.66
62779;BME280;48821;48.796;2.396;2022-07-29T10:08:02;101465.88;;;26.09;33.16
62779;BME280;48821;48.796;2.396;2022-07-29T10:09:13;101468.31;;;26.12;33.65
62779;BME280;48821;48.796;2.396;2022-07-29T10:10:27;101463.91;;;26.11;33.50
62779;BME280;48821;48.796;2.396;2022-07-29T10:11:38;101461.66;;;26.16;34.48
62779;BME280;48821;48.796;2.396;2022-07-29T10:12:57;101455.16;;;26.19;33.71
62779;BME280;48821;48.796;2.396;2022-07-29T10:14:08;101455.59;;;26.24;33.40
62779;BME280;48821;48.796;2.396;2022-07-29T10:15:18;101454.56;;;26.25;34.41
62779;BME280;48821;48.796;2.396;2022-07-29T10:16:31;101466.94;;;26.28;33.84
62779;BME280;48821;48.796;2.396;2022-07-29T10:17:44;101463.97;;;26.31;34.11
62779;BME280;48821;48.796;2.396;2022-07-29T10:18:55;101464.81;;;26.32;32.96
62779;BME280;48821;48.796;2.396;2022-07-29T10:20:06;101464.69;;;26.33;33.45
62779;BME280;48821;48.796;2.396;2022-07-29T10:21:17;101469.94;;;26.35;34.03
62779;BME280;48821;48.796;2.396;2022-07-29T10:22:28;101461.72;;;26.36;33.43
62779;BME280;48821;48.796;2.396;2022-07-29T10:23:39;101465.97;;;26.39;33.93
62779;BME280;48821;48.796;2.396;2022-07-29T10:24:51;101465.97;;;26.39;33.94
62779;BME280;48821;48.796;2.396;2022-07-29T10:26:02;101466.69;;;26.41;33.16
62779;BME280;48821;48.796;2.396;2022-07-29T10:27:13;101464.72;;;26.43;33.20
62779;BME280;48821;48.796;2.396;2022-07-29T10:28:23;101462.88;;;26.44;32.63
62779;BME280;48821;48.796;2.396;2022-07-29T10:29:35;101459.94;;;26.47;33.13
62779;BME280;48821;48.796;2.396;2022-07-29T10:30:48;101472.28;;;26.49;32.32
62779;BME280;48821;48.796;2.396;2022-07-29T10:32:21;101467.44;;;26.53;32.21
62779;BME280;48821;48.796;2.396;2022-07-29T10:36:32;101471.72;;;26.66;33.16
62779;BME280;48821;48.796;2.396;2022-07-29T10:40:39;101473.72;;;26.73;32.82
62779;BME280;48821;48.796;2.396;2022-07-29T10:42:18;101473.44;;;26.77;32.57
62779;BME280;48821;48.796;2.396;2022-07-29T10:43:32;101470.75;;;26.77;33.00
62779;BME280;48821;48.796;2.396;2022-07-29T10:44:46;101478.41;;;26.81;33.13
62779;BME280;48821;48.796;2.396;2022-07-29T10:45:59;101475.41;;;26.84;32.77
62779;BME280;48821;48.796;2.396;2022-07-29T10:47:23;101473.31;;;26.88;32.23
62779;BME280;48821;48.796;2.396;2022-07-29T10:48:34;101472.28;;;26.89;32.30
62779;BME280;48821;48.796;2.396;2022-07-29T10:49:57;101474.59;;;26.94;31.68
62779;BME280;48821;48.796;2.396;2022-07-29T10:51:08;101475.41;;;26.94;32.69
62779;BME280;48821;48.796;2.396;2022-07-29T10:52:18;101467.06;;;26.97;32.17
62779;BME280;48821;48.796;2.396;2022-07-29T10:53:48;101472.88;;;27.03;32.17
62779;BME280;48821;48.796;2.396;2022-07-29T10:54:59;101468.34;;;27.03;32.76
62779;BME280;48821;48.796;2.396;2022-07-29T10:56:27;101467.91;;;27.08;32.69
62779;BME280;48821;48.796;2.396;2022-07-29T10:57:37;101476.88;;;27.08;32.53
62779;BME280;48821;48.796;2.396;2022-07-29T11:00:29;101479.00;;;27.15;32.23
62779;BME280;48821;48.796;2.396;2022-07-29T11:01:40;101475.59;;;27.13;31.80
62779;BME280;48821;48.796;2.396;2022-07-29T11:02:50;101477.16;;;27.15;31.85
62779;BME280;48821;48.796;2.396;2022-07-29T11:04:05;101484.25;;;27.16;32.03
62779;BME280;48821;48.796;2.396;2022-07-29T11:05:17;101476.03;;;27.18;31.75
62779;BME280;48821;48.796;2.396;2022-07-29T11:09:27;101475.16;;;27.27;31.84
62779;BME280;48821;48.796;2.396;2022-07-29T11:10:40;101466.09;;;27.28;31.66
62779;BME280;48821;48.796;2.396;2022-07-29T11:11:50;101472.88;;;27.33;31.43
62779;BME280;48821;48.796;2.396;2022-07-29T11:13:01;101476.28;;;27.35;31.33
62779;BME280;48821;48.796;2.396;2022-07-29T11:14:11;101472.44;;;27.37;31.32
62779;BME280;48821;48.796;2.396;2022-07-29T11:15:22;101465.06;;;27.39;31.49
62779;BME280;48821;48.796;2.396;2022-07-29T11:17:04;101462.06;;;27.42;31.63
62779;BME280;48821;48.796;2.396;2022-07-29T11:18:14;101469.88;;;27.46;31.69
62779;BME280;48821;48.796;2.396;2022-07-29T11:19:25;101468.88;;;27.47;31.91
62779;BME280;48821;48.796;2.396;2022-07-29T11:21:49;101472.97;;;27.51;32.05
62779;BME280;48821;48.796;2.396;2022-07-29T11:23:00;101477.09;;;27.55;31.87
62779;BME280;48821;48.796;2.396;2022-07-29T11:24:15;101476.66;;;27.60;31.53
62779;BME280;48821;48.796;2.396;2022-07-29T11:25:26;101481.06;;;27.61;31.21
62779;BME280;48821;48.796;2.396;2022-07-29T11:26:37;101474.50;;;27.63;31.86
62779;BME280;48821;48.796;2.396;2022-07-29T11:27:47;101480.66;;;27.66;31.56
62779;BME280;48821;48.796;2.396;2022-07-29T11:29:16;101475.94;;;27.68;31.50
62779;BME280;48821;48.796;2.396;2022-07-29T11:32:09;101481.88;;;27.71;31.62
62779;BME280;48821;48.796;2.396;2022-07-29T11:33:33;101481.88;;;27.71;30.86
62779;BME280;48821;48.796;2.396;2022-07-29T11:34:44;101477.34;;;27.72;31.09
62779;BME280;48821;48.796;2.396;2022-07-29T11:36:08;101469.09;;;27.73;31.51
62779;BME280;48821;48.796;2.396;2022-07-29T11:37:20;101476.19;;;27.74;31.67
62779;BME280;48821;48.796;2.396;2022-07-29T11:38:31;101470.63;;;27.76;31.44
62779;BME280;48821;48.796;2.396;2022-07-29T11:41:25;101470.22;;;27.81;32.18
62779;BME280;48821;48.796;2.396;2022-07-29T11:43:54;101465.84;;;27.80;31.64
62779;BME280;48821;48.796;2.396;2022-07-29T11:45:17;101464.13;;;27.79;31.87
62779;BME280;48821;48.796;2.396;2022-07-29T11:46:48;101461.44;;;27.79;32.19
62779;BME280;48821;48.796;2.396;2022-07-29T11:47:59;101461.44;;;27.79;32.06
62779;BME280;48821;48.796;2.396;2022-07-29T11:49:10;101466.69;;;27.80;32.00
62779;BME280;48821;48.796;2.396;2022-07-29T11:50:30;101465.94;;;27.78;31.98
62779;BME280;48821;48.796;2.396;2022-07-29T11:51:41;101461.44;;;27.79;31.47
62779;BME280;48821;48.796;2.396;2022-07-29T11:52:53;101464.00;;;27.80;31.49
62779;BME280;48821;48.796;2.396;2022-07-29T11:54:04;101462.97;;;27.81;31.33
62779;BME280;48821;48.796;2.396;2022-07-29T11:55:19;101472.78;;;27.82;31.70
62779;BME280;48821;48.796;2.396;2022-07-29T11:56:31;101459.84;;;27.86;31.66
62779;BME280;48821;48.796;2.396;2022-07-29T11:57:49;101457.00;;;27.88;32.06
62779;BME280;48821;48.796;2.396;2022-07-29T11:59:06;101465.81;;;27.90;31.82
62779;BME280;48821;48.796;2.396;2022-07-29T12:00:24;101470.19;;;27.91;31.96
62779;BME280;48821;48.796;2.396;2022-07-29T12:01:35;101462.09;;;27.91;31.27
62779;BME280;48821;48.796;2.396;2022-07-29T12:02:45;101463.97;;;27.90;31.98
62779;BME280;48821;48.796;2.396;2022-07-29T12:04:04;101461.97;;;27.92;31.19
62779;BME280;48821;48.796;2.396;2022-07-29T12:05:15;101452.84;;;27.93;30.96
62779;BME280;48821;48.796;2.396;2022-07-29T12:06:25;101462.38;;;27.97;30.62
62779;BME280;48821;48.796;2.396;2022-07-29T12:07:37;101461.22;;;28.00;30.71
62779;BME280;48821;48.796;2.396;2022-07-29T12:08:48;101462.75;;;28.03;31.21
62779;BME280;48821;48.796;2.396;2022-07-29T12:09:58;101463.31;;;28.06;31.08
62779;BME280;48821;48.796;2.396;2022-07-29T12:11:19;101466.41;;;28.12;30.63
62779;BME280;48821;48.796;2.396;2022-07-29T12:12:30;101468.09;;;28.13;30.45